KBOW/BOW METAR and TAF weather

Enter ICAO airport designator
Station Type Date Time Source
KBOW METAR 2020/02/21 14:50 UTC NOAA

KBOW 211450Z 02016G22KT 2SM BR BKN006 11/10 A3020


Station Type Date Time Source
KBOW Decoded METAR 2020/02/21 14:50 UTC NOAA

Bartow Municipal, FL, United States (KBOW) 27-57N 081-47W
Feb 21, 2020 - 09:50 AM EST / 2020.02.21 1450 UTC
Wind: from the NNE (020 degrees) at 18 MPH (16 KT) gusting to 25 MPH (22 KT):0
Visibility: 2 mile(s):0
Sky conditions: mostly cloudy
Weather: mist
Temperature: 51 F (11 C)
Dew Point: 50 F (10 C)
Relative Humidity: 93%
Pressure (altimeter): 30.2 in. Hg (1022 hPa)
ob: KBOW 211450Z 02016G22KT 2SM BR BKN006 11/10 A3020
cycle: 15

Station Type Date Time Source
KBOW TAF UTC NOAA

Error!

Example: see airport list